Time;durP1;ratioP1;P1;durP2;ratioP2;P2;SDS_P1;SDS_P2;PMS_P1;PMS_P2;Temp;Humidity;BMP_temperature;BMP_pressure;BME280_temperature;BME280_humidity;BME280_pressure;Samples;Min_cycle;Max_cycle;Signal;HPM_P1;HPM_P2
2023/11/27 00:01:20;;;;;;;4.53;4.10;;;1.30;99.90;;;;;;5093729;28;20210;-63
2023/11/27 00:03:48;;;;;;;4.77;4.37;;;1.40;99.90;;;;;;5095910;28;20202;-63
2023/11/27 00:06:15;;;;;;;5.33;4.70;;;1.30;99.90;;;;;;5090457;28;20202;-63
2023/11/27 00:08:42;;;;;;;4.60;4.30;;;1.30;99.90;;;;;;5097930;28;20682;-63
2023/11/27 00:11:10;;;;;;;4.67;4.27;;;1.30;99.90;;;;;;5105387;28;20290;-63
2023/11/27 00:13:37;;;;;;;4.77;4.37;;;1.30;99.90;;;;;;5104870;28;20206;-63
2023/11/27 00:16:09;;;;;;;4.67;4.27;;;1.30;99.90;;;;;;5105122;28;20317;-63
2023/11/27 00:18:36;;;;;;;4.80;4.40;;;1.40;99.90;;;;;;5090286;28;20281;-63
2023/11/27 00:21:02;;;;;;;4.90;4.50;;;1.40;99.90;;;;;;5084592;28;20206;-63
2023/11/27 00:23:29;;;;;;;5.40;4.90;;;1.40;99.90;;;;;;5084716;28;20246;-63
2023/11/27 00:25:56;;;;;;;4.53;4.13;;;1.30;99.90;;;;;;5084785;28;20297;-63
2023/11/27 00:28:25;;;;;;;5.23;4.10;;;1.40;99.90;;;;;;5084556;28;20206;-63
2023/11/27 00:30:52;;;;;;;4.50;4.20;;;1.40;99.90;;;;;;5084568;28;20620;-62
2023/11/27 00:33:19;;;;;;;4.50;4.00;;;1.30;99.90;;;;;;5084579;28;20203;-62
2023/11/27 00:35:46;;;;;;;4.90;4.50;;;1.40;99.90;;;;;;5086338;28;20234;-63
2023/11/27 00:38:13;;;;;;;4.87;4.43;;;1.30;99.90;;;;;;5088853;28;20330;-63
2023/11/27 00:40:40;;;;;;;4.40;4.00;;;1.30;99.90;;;;;;5088697;28;20211;-63
2023/11/27 00:43:07;;;;;;;4.67;4.27;;;1.30;99.90;;;;;;5088596;28;20245;-63
2023/11/27 00:45:35;;;;;;;5.57;4.27;;;1.30;99.90;;;;;;5088342;28;20256;-63
2023/11/27 00:48:02;;;;;;;4.57;4.13;;;1.30;99.90;;;;;;5088549;28;20242;-63
2023/11/27 00:50:29;;;;;;;4.03;3.67;;;1.30;99.90;;;;;;5088509;28;20697;-63
2023/11/27 00:52:56;;;;;;;7.60;4.63;;;1.40;99.90;;;;;;5088174;28;20305;-63
2023/11/27 00:55:23;;;;;;;7.50;4.43;;;1.40;99.90;;;;;;5087962;28;20237;-63
2023/11/27 00:57:49;;;;;;;4.80;4.40;;;1.40;99.90;;;;;;5087723;28;20234;-63
2023/11/27 01:00:17;;;;;;;4.40;4.00;;;1.40;99.90;;;;;;5088063;28;20754;-63
2023/11/27 01:02:46;;;;;;;6.83;4.43;;;1.40;99.90;;;;;;5087682;28;20207;-63
2023/11/27 01:05:14;;;;;;;4.30;4.00;;;1.40;99.90;;;;;;5088366;28;20218;-63
2023/11/27 01:07:42;;;;;;;5.17;4.50;;;1.40;99.90;;;;;;5087551;28;20235;-63
2023/11/27 01:10:09;;;;;;;4.70;3.93;;;1.40;99.90;;;;;;5087575;28;20210;-63
2023/11/27 01:12:38;;;;;;;4.13;3.77;;;1.50;99.90;;;;;;5087327;28;20565;-63
2023/11/27 01:15:07;;;;;;;4.93;4.43;;;1.50;99.90;;;;;;5070758;28;20277;-63
2023/11/27 01:17:34;;;;;;;4.30;3.97;;;1.50;99.90;;;;;;5066877;28;20234;-63
2023/11/27 01:20:02;;;;;;;5.73;4.17;;;1.50;99.90;;;;;;5067893;28;20297;-63
2023/11/27 01:22:29;;;;;;;4.90;4.40;;;1.50;99.90;;;;;;5086739;28;20313;-64
2023/11/27 01:24:56;;;;;;;5.47;4.30;;;1.50;99.90;;;;;;5087692;28;20317;-63
2023/11/27 01:27:23;;;;;;;4.87;4.30;;;1.40;99.90;;;;;;5087825;28;20642;-63
2023/11/27 01:29:50;;;;;;;4.90;4.50;;;1.40;99.90;;;;;;5087370;28;20673;-62
2023/11/27 01:32:17;;;;;;;5.03;4.63;;;1.40;99.90;;;;;;5087214;28;20697;-63
2023/11/27 01:34:43;;;;;;;5.63;4.00;;;1.40;99.90;;;;;;5087522;28;20234;-63
2023/11/27 01:37:12;;;;;;;4.47;4.07;;;1.40;99.90;;;;;;5087574;28;20223;-63
2023/11/27 01:39:39;;;;;;;7.33;4.23;;;1.40;99.90;;;;;;5087153;28;20207;-63
2023/11/27 01:42:06;;;;;;;4.63;3.57;;;1.50;99.90;;;;;;5087624;28;20322;-63
2023/11/27 01:44:33;;;;;;;4.40;3.80;;;1.50;99.90;;;;;;5087709;28;20211;-63
2023/11/27 01:47:00;;;;;;;4.17;3.53;;;1.50;99.90;;;;;;5086176;28;20195;-63
2023/11/27 01:49:27;;;;;;;5.00;4.03;;;1.50;99.90;;;;;;5087192;28;20849;-63
2023/11/27 01:51:54;;;;;;;4.07;3.77;;;1.50;99.90;;;;;;5086940;28;20203;-63
2023/11/27 01:54:22;;;;;;;4.17;3.60;;;1.50;99.90;;;;;;5086743;28;20213;-63
2023/11/27 01:56:51;;;;;;;3.77;3.43;;;1.50;99.90;;;;;;5087264;28;20235;-63
2023/11/27 01:59:20;;;;;;;4.23;3.87;;;1.50;99.90;;;;;;5087071;28;20234;-63
2023/11/27 02:01:48;;;;;;;4.60;3.93;;;1.60;99.90;;;;;;5086313;28;20203;-64
2023/11/27 02:04:15;;;;;;;4.73;4.30;;;1.60;99.90;;;;;;5086691;28;20206;-64
2023/11/27 02:06:42;;;;;;;4.30;3.93;;;1.60;99.90;;;;;;5086887;28;20218;-64
2023/11/27 02:09:09;;;;;;;4.77;4.17;;;1.60;99.90;;;;;;5086543;28;20239;-64
2023/11/27 02:11:45;;;;;;;5.23;4.00;;;1.60;99.90;;;;;;5087262;28;20207;-64
2023/11/27 02:14:14;;;;;;;4.23;3.93;;;1.60;99.90;;;;;;5086554;28;20806;-64
2023/11/27 02:16:40;;;;;;;3.87;3.57;;;1.60;99.90;;;;;;5086359;28;20226;-64
2023/11/27 02:19:09;;;;;;;4.20;3.80;;;1.70;99.90;;;;;;5086168;28;20703;-64
2023/11/27 02:21:36;;;;;;;6.33;3.83;;;1.70;99.90;;;;;;5086941;28;20298;-64
2023/11/27 02:24:04;;;;;;;5.67;4.13;;;1.70;99.90;;;;;;5086735;28;20302;-64
2023/11/27 02:26:33;;;;;;;4.77;4.00;;;1.70;99.90;;;;;;5086771;28;20293;-64
2023/11/27 02:29:00;;;;;;;4.53;4.13;;;1.70;99.90;;;;;;5086443;28;20202;-64
2023/11/27 02:31:27;;;;;;;4.07;3.63;;;1.70;99.90;;;;;;5085970;28;20734;-64
2023/11/27 02:33:54;;;;;;;7.80;4.23;;;1.70;99.90;;;;;;5086445;28;20202;-64
2023/11/27 02:36:21;;;;;;;3.97;3.57;;;1.70;99.90;;;;;;5086208;28;20322;-64
2023/11/27 02:38:48;;;;;;;4.77;4.23;;;1.70;99.90;;;;;;5086193;28;20290;-64
2023/11/27 02:41:17;;;;;;;4.47;4.00;;;1.70;99.90;;;;;;5086864;28;20576;-64
2023/11/27 02:43:44;;;;;;;4.30;3.80;;;1.70;99.90;;;;;;5086566;28;20207;-64
2023/11/27 02:46:11;;;;;;;4.43;3.80;;;1.70;99.90;;;;;;5086399;28;20297;-64
2023/11/27 02:48:38;;;;;;;4.73;4.33;;;1.70;99.90;;;;;;5086393;28;20211;-64
2023/11/27 02:51:05;;;;;;;4.93;4.43;;;1.60;99.90;;;;;;5086441;28;20293;-64
2023/11/27 02:53:32;;;;;;;4.83;4.33;;;1.60;99.90;;;;;;5085788;28;20326;-63
2023/11/27 02:55:59;;;;;;;5.77;4.50;;;1.60;99.90;;;;;;5086154;28;20310;-63
2023/11/27 02:58:28;;;;;;;5.93;4.70;;;1.60;99.90;;;;;;5085811;28;20238;-63
2023/11/27 03:00:54;;;;;;;6.67;4.70;;;1.60;99.90;;;;;;5085959;28;20206;-64
2023/11/27 03:03:22;;;;;;;4.60;4.03;;;1.60;99.90;;;;;;5085958;28;20617;-64
2023/11/27 03:05:49;;;;;;;7.00;4.20;;;1.50;99.90;;;;;;5083631;28;20691;-64
2023/11/27 03:08:16;;;;;;;5.17;4.67;;;1.50;99.90;;;;;;5065234;28;20317;-64
2023/11/27 03:10:43;;;;;;;4.87;4.47;;;1.60;99.90;;;;;;5065349;28;20207;-64
2023/11/27 03:13:09;;;;;;;4.80;4.23;;;1.50;99.90;;;;;;5065540;28;20257;-64
2023/11/27 03:15:38;;;;;;;5.23;4.83;;;1.60;99.90;;;;;;5065466;28;20354;-65
2023/11/27 03:18:04;;;;;;;5.10;4.60;;;1.60;99.90;;;;;;5081206;28;20238;-64
2023/11/27 03:20:31;;;;;;;5.00;4.50;;;1.60;99.90;;;;;;5085783;28;20207;-64
2023/11/27 03:22:58;;;;;;;6.20;4.50;;;1.60;99.90;;;;;;5095596;28;20301;-63
2023/11/27 03:25:24;;;;;;;5.00;4.60;;;1.60;99.90;;;;;;5082621;28;20313;-64
2023/11/27 03:27:51;;;;;;;4.73;4.30;;;1.60;99.90;;;;;;5063379;28;20294;-64
2023/11/27 03:30:19;;;;;;;5.03;4.53;;;1.60;99.90;;;;;;5063520;28;20298;-64
2023/11/27 03:32:47;;;;;;;5.67;4.43;;;1.60;99.90;;;;;;5063403;28;20265;-63
2023/11/27 03:35:14;;;;;;;4.60;4.30;;;1.60;99.90;;;;;;5063762;28;20638;-64
2023/11/27 03:37:41;;;;;;;5.97;4.50;;;1.60;99.90;;;;;;5062603;28;20366;-64
2023/11/27 03:40:09;;;;;;;6.97;4.73;;;1.60;99.90;;;;;;5077908;28;20244;-64
2023/11/27 03:42:36;;;;;;;4.97;4.10;;;1.60;99.90;;;;;;5082790;28;20978;-64
2023/11/27 03:45:03;;;;;;;5.47;4.97;;;1.60;99.90;;;;;;5083141;28;20210;-64
2023/11/27 03:47:30;;;;;;;4.80;4.40;;;1.60;99.90;;;;;;5083068;28;20221;-63
2023/11/27 03:49:59;;;;;;;5.00;4.60;;;1.60;99.90;;;;;;5083199;28;20633;-64
2023/11/27 03:52:25;;;;;;;4.70;4.20;;;1.60;99.90;;;;;;5088840;28;20219;-64
2023/11/27 03:54:52;;;;;;;4.80;4.40;;;1.60;99.90;;;;;;5104083;28;20326;-64
2023/11/27 03:57:19;;;;;;;5.00;4.60;;;1.60;99.90;;;;;;5103812;28;20782;-64
2023/11/27 03:59:47;;;;;;;4.47;4.07;;;1.60;99.90;;;;;;5103695;28;20210;-64
2023/11/27 04:02:14;;;;;;;4.87;4.47;;;1.70;99.90;;;;;;5080562;28;20688;-64
2023/11/27 04:04:40;;;;;;;5.90;4.50;;;1.70;99.90;;;;;;5064106;28;20266;-64
2023/11/27 04:07:09;;;;;;;5.23;4.23;;;1.60;99.90;;;;;;5063027;28;20686;-64
2023/11/27 04:09:38;;;;;;;5.40;4.40;;;1.60;99.90;;;;;;5062616;28;20650;-63
2023/11/27 04:12:05;;;;;;;4.50;4.10;;;1.60;99.90;;;;;;5063820;28;20686;-65
2023/11/27 04:14:32;;;;;;;4.87;4.47;;;1.60;99.90;;;;;;5063141;28;20238;-64
2023/11/27 04:17:01;;;;;;;6.07;4.53;;;1.60;99.90;;;;;;5067965;28;20235;-64
2023/11/27 04:19:28;;;;;;;6.47;5.70;;;1.60;99.90;;;;;;5084128;28;20301;-64
2023/11/27 04:21:55;;;;;;;7.03;5.90;;;1.60;99.90;;;;;;5084862;28;20203;-64
2023/11/27 04:24:23;;;;;;;5.77;4.77;;;1.60;99.90;;;;;;5084674;28;20252;-63
2023/11/27 04:26:50;;;;;;;5.33;4.83;;;1.60;99.90;;;;;;5084169;28;20206;-63
2023/11/27 04:29:18;;;;;;;7.37;5.30;;;1.50;99.90;;;;;;5084490;28;20420;-64
2023/11/27 04:31:44;;;;;;;7.87;5.50;;;1.60;99.90;;;;;;5084086;28;20209;-63
2023/11/27 04:34:11;;;;;;;6.43;5.40;;;1.60;99.90;;;;;;5084315;28;20311;-64
2023/11/27 04:36:38;;;;;;;6.30;4.93;;;1.60;99.90;;;;;;5084106;28;20299;-63
2023/11/27 04:39:10;;;;;;;5.30;4.90;;;1.60;99.90;;;;;;5084194;28;20228;-64
2023/11/27 04:41:42;;;;;;;6.57;4.60;;;1.50;99.90;;;;;;5083821;28;20215;-63
2023/11/27 04:44:09;;;;;;;5.67;5.13;;;1.50;99.90;;;;;;5084199;28;20298;-64
2023/11/27 04:46:36;;;;;;;5.30;4.50;;;1.50;99.90;;;;;;5084361;28;20293;-64
2023/11/27 04:49:02;;;;;;;5.20;4.80;;;1.50;99.90;;;;;;5084336;28;20210;-64
2023/11/27 04:51:30;;;;;;;4.67;4.27;;;1.60;99.90;;;;;;5084102;28;20297;-64
2023/11/27 04:53:57;;;;;;;6.43;4.47;;;1.60;99.90;;;;;;5084528;28;20234;-64
2023/11/27 04:56:24;;;;;;;4.87;4.33;;;1.60;99.90;;;;;;5084435;28;20317;-64
2023/11/27 04:58:52;;;;;;;5.27;4.83;;;1.60;99.90;;;;;;5083885;28;20345;-63
2023/11/27 05:01:19;;;;;;;4.93;4.53;;;1.60;99.90;;;;;;5083755;28;20306;-64
2023/11/27 05:03:46;;;;;;;6.33;4.63;;;1.60;99.90;;;;;;5083652;28;20665;-64
2023/11/27 05:06:15;;;;;;;5.20;4.70;;;1.50;99.90;;;;;;5084223;28;20298;-63
2023/11/27 05:08:42;;;;;;;7.17;4.63;;;1.60;99.90;;;;;;5083735;28;20714;-63
2023/11/27 05:11:16;;;;;;;5.27;4.80;;;1.60;99.90;;;;;;5084199;28;20569;-64
2023/11/27 05:13:43;;;;;;;5.43;4.53;;;1.60;99.90;;;;;;5083979;28;20241;-64
2023/11/27 05:16:11;;;;;;;5.47;4.40;;;1.70;99.90;;;;;;5084142;28;20302;-64
2023/11/27 05:18:38;;;;;;;5.10;4.60;;;1.70;99.90;;;;;;5084241;28;20325;-64
2023/11/27 05:21:06;;;;;;;5.27;4.77;;;1.70;99.90;;;;;;5084336;28;20206;-64
2023/11/27 05:23:33;;;;;;;5.10;4.60;;;1.70;99.90;;;;;;5087631;28;20210;-64
2023/11/27 05:26:00;;;;;;;5.00;4.50;;;1.70;99.90;;;;;;5088211;28;20578;-63
2023/11/27 05:28:27;;;;;;;5.20;4.67;;;1.70;99.90;;;;;;5087857;28;20305;-64
2023/11/27 05:30:53;;;;;;;5.47;4.70;;;1.70;99.90;;;;;;5087992;28;20289;-64
2023/11/27 05:33:22;;;;;;;5.80;4.73;;;1.70;99.90;;;;;;5087832;28;20588;-63
2023/11/27 05:35:49;;;;;;;5.23;4.73;;;1.70;99.90;;;;;;5087644;28;20301;-64
2023/11/27 05:38:15;;;;;;;5.77;5.00;;;1.70;99.90;;;;;;5087241;28;20348;-64
2023/11/27 05:40:43;;;;;;;7.63;5.07;;;1.80;99.90;;;;;;5087229;28;20293;-63
2023/11/27 05:43:11;;;;;;;6.23;5.60;;;1.80;99.90;;;;;;5087565;28;20207;-63
2023/11/27 05:45:38;;;;;;;5.60;5.10;;;1.80;99.90;;;;;;5087271;28;20213;-63
2023/11/27 05:48:05;;;;;;;6.10;4.93;;;1.80;99.90;;;;;;5087639;28;20215;-64
2023/11/27 05:50:34;;;;;;;7.37;5.10;;;1.70;99.90;;;;;;5087163;28;20198;-64
2023/11/27 05:53:01;;;;;;;5.60;5.10;;;1.70;99.90;;;;;;5087467;28;20302;-64
2023/11/27 05:55:27;;;;;;;8.47;6.20;;;1.80;99.90;;;;;;5087429;28;20313;-63
2023/11/27 05:57:55;;;;;;;11.13;6.70;;;1.80;99.90;;;;;;5087066;28;20704;-64
2023/11/27 06:00:24;;;;;;;9.40;7.50;;;1.80;99.90;;;;;;5086712;28;20206;-64
2023/11/27 06:02:52;;;;;;;13.40;8.90;;;1.80;99.90;;;;;;5086240;28;20732;-64
2023/11/27 06:05:19;;;;;;;12.13;8.60;;;1.70;99.90;;;;;;5087644;28;20256;-63
2023/11/27 06:07:48;;;;;;;7.67;6.87;;;1.70;99.90;;;;;;5086973;28;20349;-64
2023/11/27 06:10:16;;;;;;;8.20;6.40;;;1.70;99.90;;;;;;5087023;28;20228;-64
2023/11/27 06:12:43;;;;;;;6.40;5.27;;;1.70;99.90;;;;;;5086533;28;20210;-64
2023/11/27 06:15:13;;;;;;;6.50;5.67;;;1.70;99.90;;;;;;5086884;28;20209;-64
2023/11/27 06:17:40;;;;;;;5.90;5.37;;;1.80;99.90;;;;;;5086511;28;20760;-63
2023/11/27 06:20:09;;;;;;;7.07;5.40;;;1.80;99.90;;;;;;5086950;28;20218;-63
2023/11/27 06:22:36;;;;;;;5.70;5.20;;;1.80;99.90;;;;;;5086985;28;20293;-64
2023/11/27 06:25:07;;;;;;;5.73;5.23;;;1.80;99.90;;;;;;5086653;28;20729;-63
2023/11/27 06:27:34;;;;;;;5.47;4.80;;;1.80;99.90;;;;;;5086889;28;20302;-64
2023/11/27 06:30:00;;;;;;;7.50;5.00;;;1.70;99.90;;;;;;5086017;28;20206;-64
2023/11/27 06:32:30;;;;;;;5.93;5.33;;;1.80;99.90;;;;;;5085488;28;20209;-63
2023/11/27 06:34:57;;;;;;;5.20;4.80;;;1.80;99.90;;;;;;5086130;28;20475;-64
2023/11/27 06:37:24;;;;;;;6.53;5.57;;;1.80;99.90;;;;;;5086715;28;20619;-64
2023/11/27 06:39:51;;;;;;;5.00;4.50;;;1.80;99.90;;;;;;5085679;28;20210;-63
2023/11/27 06:42:19;;;;;;;5.53;4.80;;;1.80;99.90;;;;;;5086351;28;20217;-64
2023/11/27 06:44:46;;;;;;;6.37;4.87;;;1.80;99.90;;;;;;5085963;28;20298;-64
2023/11/27 06:47:13;;;;;;;8.90;5.07;;;1.80;99.90;;;;;;5086384;28;20628;-64
2023/11/27 06:49:40;;;;;;;5.10;4.57;;;1.80;99.90;;;;;;5086157;28;20224;-64
2023/11/27 06:52:07;;;;;;;5.90;4.90;;;1.80;99.90;;;;;;5086010;28;20250;-64
2023/11/27 06:54:33;;;;;;;5.10;4.40;;;1.80;99.90;;;;;;5085661;28;20266;-63
2023/11/27 06:57:00;;;;;;;4.93;4.33;;;1.80;99.90;;;;;;5085864;28;20213;-63
2023/11/27 06:59:29;;;;;;;5.17;4.67;;;1.80;99.90;;;;;;5086275;28;20245;-64
2023/11/27 07:01:55;;;;;;;4.70;4.30;;;1.90;99.90;;;;;;5085803;28;20211;-64
2023/11/27 07:04:22;;;;;;;4.47;4.07;;;1.90;99.90;;;;;;5086031;28;20317;-64
2023/11/27 07:06:51;;;;;;;5.10;4.60;;;1.90;99.90;;;;;;5086020;28;20305;-64
2023/11/27 07:09:18;;;;;;;5.47;4.40;;;1.90;99.90;;;;;;5085509;28;20689;-64
2023/11/27 07:11:46;;;;;;;5.10;4.60;;;1.90;99.90;;;;;;5085801;28;20573;-64
2023/11/27 07:14:13;;;;;;;4.30;3.90;;;1.90;99.90;;;;;;5085660;28;20321;-63
2023/11/27 07:16:41;;;;;;;5.07;4.30;;;1.90;99.90;;;;;;5085490;28;20220;-64
2023/11/27 07:19:11;;;;;;;6.00;4.90;;;1.90;99.90;;;;;;5085647;28;20633;-64
2023/11/27 07:21:38;;;;;;;6.53;4.70;;;1.90;99.90;;;;;;5085425;28;20650;-63
2023/11/27 07:24:06;;;;;;;5.73;4.63;;;1.90;99.90;;;;;;5085640;28;20297;-63
2023/11/27 07:26:33;;;;;;;4.70;4.20;;;1.90;99.90;;;;;;5064933;28;20208;-64
2023/11/27 07:29:00;;;;;;;4.60;4.20;;;1.90;99.90;;;;;;5065216;28;20998;-63
2023/11/27 07:31:27;;;;;;;5.63;4.50;;;1.90;99.90;;;;;;5083524;28;20751;-64
2023/11/27 07:33:55;;;;;;;5.63;4.30;;;2.00;99.90;;;;;;5085446;28;20203;-64
2023/11/27 07:36:23;;;;;;;4.90;4.10;;;2.00;99.90;;;;;;5085377;28;20294;-63
2023/11/27 07:38:50;;;;;;;6.30;4.10;;;2.00;99.90;;;;;;5085495;28;20242;-64
2023/11/27 07:41:19;;;;;;;5.73;4.23;;;2.00;99.90;;;;;;5085337;28;20279;-64
2023/11/27 07:43:45;;;;;;;4.37;3.97;;;2.00;99.90;;;;;;5085229;28;20207;-64
2023/11/27 07:46:13;;;;;;;4.53;4.13;;;2.00;99.90;;;;;;5084679;28;20213;-63
2023/11/27 07:48:41;;;;;;;5.90;4.10;;;2.10;99.90;;;;;;5085240;28;20289;-64
2023/11/27 07:51:10;;;;;;;6.67;4.37;;;2.10;99.90;;;;;;5085377;28;20206;-64
2023/11/27 07:53:37;;;;;;;4.13;3.73;;;2.10;99.90;;;;;;5084990;28;20320;-64
2023/11/27 07:56:05;;;;;;;4.27;3.93;;;2.10;99.90;;;;;;5085120;28;20632;-64
2023/11/27 07:58:32;;;;;;;4.93;4.23;;;2.10;99.90;;;;;;5084947;28;20287;-64
2023/11/27 08:00:59;;;;;;;4.70;3.80;;;2.10;99.90;;;;;;5084840;28;20199;-63
2023/11/27 08:03:26;;;;;;;4.07;3.67;;;2.10;99.90;;;;;;5084840;28;20673;-63
2023/11/27 08:05:53;;;;;;;4.90;3.90;;;2.10;99.90;;;;;;5085230;28;20203;-64
2023/11/27 08:08:21;;;;;;;4.50;4.10;;;2.10;99.90;;;;;;5084600;28;20246;-63
2023/11/27 08:10:48;;;;;;;5.60;4.47;;;2.10;99.90;;;;;;5084712;28;20207;-63
2023/11/27 08:13:15;;;;;;;4.80;4.40;;;2.10;99.90;;;;;;5084945;28;20215;-64
2023/11/27 08:15:42;;;;;;;4.73;4.30;;;2.20;99.90;;;;;;5084578;28;20769;-63
2023/11/27 08:18:11;;;;;;;4.97;4.37;;;2.20;99.90;;;;;;5084812;28;20230;-64
2023/11/27 08:20:38;;;;;;;5.27;4.57;;;2.20;99.90;;;;;;5084547;28;20210;-63
2023/11/27 08:23:05;;;;;;;5.13;4.63;;;2.20;99.90;;;;;;5073587;28;20298;-64
2023/11/27 08:25:34;;;;;;;4.87;4.20;;;2.20;99.90;;;;;;5064624;28;20302;-64
2023/11/27 08:28:02;;;;;;;7.23;4.90;;;2.20;99.90;;;;;;5084954;28;20636;-64
2023/11/27 08:30:32;;;;;;;6.27;4.77;;;2.20;99.90;;;;;;5084445;28;20261;-64
2023/11/27 08:32:59;;;;;;;6.33;5.03;;;2.20;99.90;;;;;;5084520;28;20560;-64
2023/11/27 08:35:26;;;;;;;5.63;4.27;;;2.10;99.90;;;;;;5085012;28;20217;-64
2023/11/27 08:37:53;;;;;;;4.93;4.43;;;2.20;99.90;;;;;;5084573;28;20229;-64
2023/11/27 08:40:21;;;;;;;6.83;4.40;;;2.20;99.90;;;;;;5084220;28;20204;-64
2023/11/27 08:42:49;;;;;;;6.43;4.10;;;2.20;99.90;;;;;;5084642;28;20256;-64
2023/11/27 08:45:18;;;;;;;6.37;4.50;;;2.20;99.90;;;;;;5084556;28;20290;-64
2023/11/27 08:47:50;;;;;;;4.40;4.00;;;2.20;99.90;;;;;;5084157;28;20210;-64
2023/11/27 08:50:17;;;;;;;4.20;3.90;;;2.20;99.90;;;;;;5084505;28;20640;-64
2023/11/27 08:52:44;;;;;;;7.77;4.13;;;2.20;99.90;;;;;;5084257;28;20247;-64
2023/11/27 08:55:18;;;;;;;5.63;4.37;;;2.40;99.90;;;;;;5084519;28;20215;-64
2023/11/27 08:57:45;;;;;;;5.93;4.17;;;2.30;99.90;;;;;;5071977;28;20208;-64
2023/11/27 09:00:18;;;;;;;6.03;4.03;;;2.30;99.90;;;;;;5068177;28;20330;-64
2023/11/27 09:02:45;;;;;;;4.60;4.20;;;2.30;99.90;;;;;;5068263;28;20701;-63
2023/11/27 09:05:12;;;;;;;4.90;4.20;;;2.30;99.90;;;;;;5068055;28;20246;-64
2023/11/27 09:07:39;;;;;;;4.67;4.27;;;2.30;99.90;;;;;;5068321;28;20273;-64
2023/11/27 09:10:07;;;;;;;4.97;4.33;;;2.40;99.90;;;;;;5068035;28;20873;-64
2023/11/27 09:12:34;;;;;;;5.10;4.70;;;2.40;99.90;;;;;;5071307;28;20207;-64
2023/11/27 09:15:03;;;;;;;5.17;4.67;;;2.40;99.90;;;;;;5088251;28;21182;-64
2023/11/27 09:17:32;;;;;;;4.97;4.23;;;2.40;99.90;;;;;;5087958;28;20318;-64
2023/11/27 09:19:58;;;;;;;7.40;4.83;;;2.50;99.90;;;;;;5088023;28;20227;-64
2023/11/27 09:22:25;;;;;;;7.07;4.60;;;2.50;99.90;;;;;;5088123;28;20234;-64
2023/11/27 09:24:52;;;;;;;5.10;4.60;;;2.50;99.90;;;;;;5088325;28;20302;-63
2023/11/27 09:27:19;;;;;;;4.80;4.37;;;2.50;99.90;;;;;;5088160;28;20294;-64
2023/11/27 09:29:46;;;;;;;7.27;4.60;;;2.50;99.90;;;;;;5087833;28;20257;-64
2023/11/27 09:32:14;;;;;;;5.30;4.80;;;2.50;99.90;;;;;;5087525;28;20684;-64
2023/11/27 09:34:42;;;;;;;6.20;4.60;;;2.50;99.90;;;;;;5088001;28;20221;-64
2023/11/27 09:37:09;;;;;;;5.43;4.27;;;2.50;99.90;;;;;;5087837;28;20791;-64
2023/11/27 09:39:36;;;;;;;4.97;4.50;;;2.60;99.90;;;;;;5087167;28;20649;-64
2023/11/27 09:42:04;;;;;;;5.07;4.67;;;2.60;99.90;;;;;;5087792;28;20234;-65
2023/11/27 09:44:32;;;;;;;5.23;4.73;;;2.60;99.90;;;;;;5087970;28;20295;-64
2023/11/27 09:47:01;;;;;;;5.07;4.50;;;2.60;99.90;;;;;;5087155;28;20670;-63
2023/11/27 09:49:31;;;;;;;5.67;5.17;;;2.60;99.90;;;;;;5087421;28;20213;-63
2023/11/27 09:52:04;;;;;;;7.13;5.20;;;2.60;99.90;;;;;;5087719;28;20214;-63
2023/11/27 09:54:34;;;;;;;5.50;5.00;;;2.60;99.90;;;;;;5066636;28;20696;-64
2023/11/27 09:57:02;;;;;;;6.77;5.33;;;2.60;99.90;;;;;;5067309;28;20196;-64
2023/11/27 09:59:30;;;;;;;5.63;5.00;;;2.60;99.90;;;;;;5067013;28;20239;-64
2023/11/27 10:01:58;;;;;;;5.80;5.17;;;2.60;99.90;;;;;;5071335;28;20217;-64
2023/11/27 10:04:25;;;;;;;6.03;5.43;;;2.60;99.90;;;;;;5087753;28;20217;-64
2023/11/27 10:06:54;;;;;;;8.00;5.60;;;2.70;99.90;;;;;;5087285;28;20309;-64
2023/11/27 10:09:22;;;;;;;7.27;6.07;;;2.70;99.90;;;;;;5086414;28;20287;-62
2023/11/27 10:11:51;;;;;;;7.13;6.13;;;2.60;99.90;;;;;;5087289;28;20312;-63
2023/11/27 10:14:19;;;;;;;7.90;6.43;;;2.70;99.90;;;;;;5086987;28;20657;-62
2023/11/27 10:16:46;;;;;;;9.53;6.30;;;2.70;99.90;;;;;;5087067;28;20595;-63
2023/11/27 10:19:19;;;;;;;8.83;6.47;;;2.70;99.90;;;;;;5087178;28;20241;-63
2023/11/27 10:21:47;;;;;;;9.40;6.33;;;2.70;99.90;;;;;;5087499;28;20206;-62
2023/11/27 10:24:14;;;;;;;8.57;6.50;;;2.70;99.90;;;;;;5066950;28;20203;-63
2023/11/27 10:26:43;;;;;;;10.67;6.50;;;2.70;99.90;;;;;;5066774;28;20213;-63
2023/11/27 10:29:11;;;;;;;9.77;6.20;;;2.70;99.90;;;;;;5066509;28;20945;-63
2023/11/27 10:31:39;;;;;;;9.03;6.53;;;2.70;99.90;;;;;;5066331;28;20235;-62
2023/11/27 10:34:07;;;;;;;9.97;7.27;;;2.80;99.90;;;;;;5066525;28;20275;-62
2023/11/27 10:36:35;;;;;;;9.77;7.60;;;2.80;99.90;;;;;;5066430;28;20677;-63
2023/11/27 10:39:05;;;;;;;11.13;7.80;;;2.80;99.90;;;;;;5072332;28;20343;-63
2023/11/27 10:41:32;;;;;;;10.57;7.60;;;2.80;99.90;;;;;;5086533;28;20191;-63
2023/11/27 10:44:02;;;;;;;10.93;8.17;;;2.80;99.90;;;;;;5086710;28;20206;-63
2023/11/27 10:46:31;;;;;;;12.63;8.20;;;2.80;99.90;;;;;;5086606;28;20203;-63
2023/11/27 10:49:00;;;;;;;13.53;8.40;;;2.90;99.90;;;;;;5086684;28;20238;-63
2023/11/27 10:51:31;;;;;;;9.93;7.90;;;2.90;99.90;;;;;;5086698;28;20571;-62
2023/11/27 10:54:00;;;;;;;9.30;7.57;;;2.90;99.90;;;;;;5086517;28;20250;-62
2023/11/27 10:56:30;;;;;;;10.80;8.03;;;3.00;99.90;;;;;;5086499;28;20224;-62
2023/11/27 10:59:05;;;;;;;13.67;8.93;;;3.00;99.90;;;;;;5086320;28;21052;-63
2023/11/27 11:01:38;;;;;;;11.00;8.17;;;3.00;99.90;;;;;;5066689;28;20195;-62
2023/11/27 11:04:23;;;;;;;12.00;8.37;;;3.00;99.90;;;;;;5086184;28;20203;-63
2023/11/27 11:06:55;;;;;;;11.70;8.43;;;3.00;99.90;;;;;;5085845;28;20230;-63
2023/11/27 11:09:24;;;;;;;12.93;8.60;;;3.00;99.90;;;;;;5085727;28;20260;-63
2023/11/27 11:11:52;;;;;;;12.27;8.40;;;3.00;99.90;;;;;;5085774;28;20210;-63
2023/11/27 11:14:24;;;;;;;10.67;8.37;;;3.00;99.90;;;;;;5085351;28;20206;-63
2023/11/27 11:17:01;;;;;;;11.27;8.63;;;3.10;99.90;;;;;;5064865;28;20755;-64
2023/11/27 11:19:33;;;;;;;12.80;8.77;;;3.10;99.90;;;;;;5065364;28;20582;-63
2023/11/27 11:22:11;;;;;;;10.50;8.57;;;3.10;99.90;;;;;;5067363;28;20211;-63
2023/11/27 11:24:46;;;;;;;13.60;9.07;;;3.10;99.90;;;;;;5085781;28;20737;-62
2023/11/27 11:27:21;;;;;;;12.40;8.63;;;3.10;99.90;;;;;;5085589;28;20206;-63
2023/11/27 11:29:51;;;;;;;12.53;9.00;;;3.10;99.90;;;;;;5085240;28;20675;-62
2023/11/27 11:32:18;;;;;;;10.83;8.67;;;3.10;99.90;;;;;;5085135;28;20210;-63
2023/11/27 11:34:50;;;;;;;12.40;9.77;;;3.10;99.90;;;;;;5084922;28;20207;-63
2023/11/27 11:37:18;;;;;;;12.47;8.77;;;3.10;99.90;;;;;;5085482;28;20276;-62
2023/11/27 11:39:46;;;;;;;10.37;8.90;;;3.10;99.90;;;;;;5084837;28;20248;-63
2023/11/27 11:42:17;;;;;;;12.33;8.90;;;3.10;99.90;;;;;;5085394;28;20304;-62
2023/11/27 11:45:05;;;;;;;11.00;8.63;;;3.10;99.90;;;;;;5085165;28;20279;-62
2023/11/27 11:47:33;;;;;;;12.03;8.00;;;3.10;99.90;;;;;;5085238;28;20573;-63
2023/11/27 11:50:28;;;;;;;12.03;8.83;;;3.10;99.90;;;;;;5085363;28;20259;-63
2023/11/27 11:52:57;;;;;;;10.20;8.13;;;3.10;99.90;;;;;;5085184;28;20302;-63
2023/11/27 11:55:26;;;;;;;11.20;9.00;;;3.10;99.90;;;;;;5084872;28;20300;-63
2023/11/27 11:57:57;;;;;;;11.13;8.37;;;3.10;99.90;;;;;;5085273;28;20569;-63
2023/11/27 12:00:29;;;;;;;12.83;9.07;;;3.10;99.90;;;;;;5085345;28;20230;-63
2023/11/27 12:02:59;;;;;;;11.73;8.53;;;3.10;99.90;;;;;;5085360;28;20206;-63
2023/11/27 12:05:27;;;;;;;9.50;8.30;;;3.10;99.90;;;;;;5085180;28;20685;-62
2023/11/27 12:07:56;;;;;;;9.93;7.57;;;3.10;99.90;;;;;;5084706;28;20271;-62
2023/11/27 12:10:30;;;;;;;8.83;7.93;;;3.10;99.90;;;;;;5084605;28;20760;-63
2023/11/27 12:12:59;;;;;;;9.53;7.73;;;3.10;99.90;;;;;;5084925;28;20931;-63
2023/11/27 12:15:28;;;;;;;8.83;7.67;;;3.10;99.90;;;;;;5084288;28;20220;-62
2023/11/27 12:17:56;;;;;;;11.10;7.87;;;3.10;99.90;;;;;;5084652;28;20233;-63
2023/11/27 12:20:23;;;;;;;8.63;7.40;;;3.10;99.90;;;;;;5084547;28;20325;-62
2023/11/27 12:22:51;;;;;;;9.37;7.53;;;3.10;99.90;;;;;;5084793;28;20711;-63
2023/11/27 12:25:19;;;;;;;9.00;7.50;;;3.10;99.90;;;;;;5084035;28;20297;-62
2023/11/27 12:27:46;;;;;;;8.90;7.80;;;3.10;99.90;;;;;;5084559;28;20229;-62
2023/11/27 12:30:20;;;;;;;9.60;7.67;;;3.10;99.90;;;;;;5085190;28;20215;-62
2023/11/27 12:32:51;;;;;;;9.73;7.80;;;3.10;99.90;;;;;;5091311;28;20183;-63
2023/11/27 12:35:18;;;;;;;9.03;8.13;;;3.10;99.90;;;;;;5091241;28;20199;-62
2023/11/27 12:37:49;;;;;;;11.70;8.37;;;3.10;99.90;;;;;;5090949;28;20752;-62
2023/11/27 12:40:20;;;;;;;9.60;8.50;;;3.10;99.90;;;;;;5090962;28;20225;-62
2023/11/27 12:42:47;;;;;;;9.87;8.23;;;3.10;99.90;;;;;;5107695;28;20239;-62
2023/11/27 12:45:20;;;;;;;11.00;8.57;;;3.10;99.90;;;;;;5111610;28;20611;-63
2023/11/27 12:47:50;;;;;;;9.40;8.40;;;3.10;99.90;;;;;;5111440;28;20498;-63
2023/11/27 12:50:23;;;;;;;11.23;8.57;;;3.10;99.90;;;;;;5111173;28;20205;-62
2023/11/27 12:52:50;;;;;;;10.43;8.80;;;3.10;99.90;;;;;;5102314;27;20686;-63
2023/11/27 12:55:19;;;;;;;9.90;8.10;;;3.10;99.90;;;;;;5090894;28;20214;-63
2023/11/27 12:57:46;;;;;;;11.30;7.67;;;3.10;99.90;;;;;;5090573;28;20833;-63
2023/11/27 13:00:15;;;;;;;9.10;7.27;;;3.10;99.90;;;;;;5090871;28;20269;-62